sensor_id;sensor_type;location;lat;lon;timestamp;P1;durP1;ratioP1;P2;durP2;ratioP2
23543;SDS011;11950;51.230;4.012;2022-12-18T00:01:19;67.73;;;27.07;;
23543;SDS011;11950;51.230;4.012;2022-12-18T00:03:47;66.00;;;26.67;;
23543;SDS011;11950;51.230;4.012;2022-12-18T00:06:14;64.93;;;26.70;;
23543;SDS011;11950;51.230;4.012;2022-12-18T00:08:41;73.20;;;28.20;;
23543;SDS011;11950;51.230;4.012;2022-12-18T00:11:09;74.37;;;29.43;;
23543;SDS011;11950;51.230;4.012;2022-12-18T00:13:38;65.73;;;26.40;;
23543;SDS011;11950;51.230;4.012;2022-12-18T00:16:06;76.67;;;27.37;;
23543;SDS011;11950;51.230;4.012;2022-12-18T00:18:34;70.10;;;27.43;;
23543;SDS011;11950;51.230;4.012;2022-12-18T00:21:05;70.13;;;26.73;;
23543;SDS011;11950;51.230;4.012;2022-12-18T00:23:33;69.57;;;27.80;;
23543;SDS011;11950;51.230;4.012;2022-12-18T00:26:05;74.13;;;26.40;;
23543;SDS011;11950;51.230;4.012;2022-12-18T00:28:35;77.43;;;27.43;;
23543;SDS011;11950;51.230;4.012;2022-12-18T00:33:29;74.07;;;29.53;;
23543;SDS011;11950;51.230;4.012;2022-12-18T00:36:00;85.43;;;32.33;;
23543;SDS011;11950;51.230;4.012;2022-12-18T00:38:27;75.80;;;29.50;;
23543;SDS011;11950;51.230;4.012;2022-12-18T00:40:53;73.60;;;29.00;;
23543;SDS011;11950;51.230;4.012;2022-12-18T00:43:20;71.67;;;28.50;;
23543;SDS011;11950;51.230;4.012;2022-12-18T00:45:46;74.53;;;28.90;;
23543;SDS011;11950;51.230;4.012;2022-12-18T00:48:12;74.27;;;28.93;;
23543;SDS011;11950;51.230;4.012;2022-12-18T00:50:39;66.90;;;27.47;;
23543;SDS011;11950;51.230;4.012;2022-12-18T00:53:05;67.47;;;26.33;;
23543;SDS011;11950;51.230;4.012;2022-12-18T00:55:31;68.03;;;27.00;;
23543;SDS011;11950;51.230;4.012;2022-12-18T00:57:58;67.23;;;27.93;;
23543;SDS011;11950;51.230;4.012;2022-12-18T01:00:24;68.83;;;28.60;;
23543;SDS011;11950;51.230;4.012;2022-12-18T01:02:50;73.60;;;29.10;;
23543;SDS011;11950;51.230;4.012;2022-12-18T01:05:16;66.10;;;29.13;;
23543;SDS011;11950;51.230;4.012;2022-12-18T01:07:43;73.73;;;30.00;;
23543;SDS011;11950;51.230;4.012;2022-12-18T01:10:10;69.67;;;28.10;;
23543;SDS011;11950;51.230;4.012;2022-12-18T01:12:37;69.03;;;27.90;;
23543;SDS011;11950;51.230;4.012;2022-12-18T01:15:04;69.80;;;27.93;;
23543;SDS011;11950;51.230;4.012;2022-12-18T01:17:32;71.87;;;26.47;;
23543;SDS011;11950;51.230;4.012;2022-12-18T01:20:00;67.17;;;26.67;;
23543;SDS011;11950;51.230;4.012;2022-12-18T01:22:26;65.53;;;26.73;;
23543;SDS011;11950;51.230;4.012;2022-12-18T01:24:52;59.90;;;25.83;;
23543;SDS011;11950;51.230;4.012;2022-12-18T01:27:21;62.30;;;24.93;;
23543;SDS011;11950;51.230;4.012;2022-12-18T01:29:49;62.53;;;26.87;;
23543;SDS011;11950;51.230;4.012;2022-12-18T01:32:15;60.70;;;25.67;;
23543;SDS011;11950;51.230;4.012;2022-12-18T01:34:41;64.73;;;25.83;;
23543;SDS011;11950;51.230;4.012;2022-12-18T01:37:07;66.87;;;28.70;;
23543;SDS011;11950;51.230;4.012;2022-12-18T01:39:34;57.17;;;25.30;;
23543;SDS011;11950;51.230;4.012;2022-12-18T01:42:02;60.23;;;25.07;;
23543;SDS011;11950;51.230;4.012;2022-12-18T01:50:06;60.00;;;25.10;;
23543;SDS011;11950;51.230;4.012;2022-12-18T01:52:38;59.00;;;24.67;;
23543;SDS011;11950;51.230;4.012;2022-12-18T01:55:13;54.90;;;23.23;;
23543;SDS011;11950;51.230;4.012;2022-12-18T01:57:42;57.30;;;24.50;;
23543;SDS011;11950;51.230;4.012;2022-12-18T02:00:14;55.87;;;23.80;;
23543;SDS011;11950;51.230;4.012;2022-12-18T02:02:43;60.10;;;24.27;;
23543;SDS011;11950;51.230;4.012;2022-12-18T02:05:12;57.00;;;24.77;;
23543;SDS011;11950;51.230;4.012;2022-12-18T02:10:31;54.87;;;23.87;;
23543;SDS011;11950;51.230;4.012;2022-12-18T02:13:14;58.93;;;25.53;;
23543;SDS011;11950;51.230;4.012;2022-12-18T02:16:01;55.93;;;24.07;;
23543;SDS011;11950;51.230;4.012;2022-12-18T02:18:36;60.00;;;24.03;;
23543;SDS011;11950;51.230;4.012;2022-12-18T02:21:09;53.83;;;23.08;;
23543;SDS011;11950;51.230;4.012;2022-12-18T02:26:47;52.10;;;23.30;;
23543;SDS011;11950;51.230;4.012;2022-12-18T02:29:26;52.50;;;23.53;;
23543;SDS011;11950;51.230;4.012;2022-12-18T02:32:02;50.90;;;23.40;;
23543;SDS011;11950;51.230;4.012;2022-12-18T02:34:32;49.23;;;23.43;;
23543;SDS011;11950;51.230;4.012;2022-12-18T02:37:04;54.55;;;25.75;;
23543;SDS011;11950;51.230;4.012;2022-12-18T02:39:34;54.23;;;25.03;;
23543;SDS011;11950;51.230;4.012;2022-12-18T02:42:04;51.23;;;23.13;;
23543;SDS011;11950;51.230;4.012;2022-12-18T02:44:44;50.77;;;23.50;;
23543;SDS011;11950;51.230;4.012;2022-12-18T02:47:17;49.88;;;24.58;;
23543;SDS011;11950;51.230;4.012;2022-12-18T02:55:42;51.50;;;22.73;;
23543;SDS011;11950;51.230;4.012;2022-12-18T02:58:18;55.23;;;23.20;;
23543;SDS011;11950;51.230;4.012;2022-12-18T03:03:33;51.40;;;24.00;;
23543;SDS011;11950;51.230;4.012;2022-12-18T03:06:06;51.50;;;23.63;;
23543;SDS011;11950;51.230;4.012;2022-12-18T03:11:06;51.80;;;22.97;;
23543;SDS011;11950;51.230;4.012;2022-12-18T03:13:42;53.93;;;24.50;;
23543;SDS011;11950;51.230;4.012;2022-12-18T03:16:21;56.33;;;24.70;;
23543;SDS011;11950;51.230;4.012;2022-12-18T03:18:53;60.33;;;25.57;;
23543;SDS011;11950;51.230;4.012;2022-12-18T03:21:33;58.97;;;24.60;;
23543;SDS011;11950;51.230;4.012;2022-12-18T03:24:08;55.83;;;25.27;;
23543;SDS011;11950;51.230;4.012;2022-12-18T03:26:38;54.10;;;25.27;;
23543;SDS011;11950;51.230;4.012;2022-12-18T03:29:09;56.05;;;25.48;;
23543;SDS011;11950;51.230;4.012;2022-12-18T03:31:51;52.73;;;24.60;;
23543;SDS011;11950;51.230;4.012;2022-12-18T03:34:31;56.30;;;26.00;;
23543;SDS011;11950;51.230;4.012;2022-12-18T03:37:02;61.93;;;28.00;;
23543;SDS011;11950;51.230;4.012;2022-12-18T03:39:31;54.67;;;25.17;;
23543;SDS011;11950;51.230;4.012;2022-12-18T03:47:14;53.17;;;23.73;;
23543;SDS011;11950;51.230;4.012;2022-12-18T03:55:29;55.43;;;24.23;;
23543;SDS011;11950;51.230;4.012;2022-12-18T03:58:03;52.73;;;22.67;;
23543;SDS011;11950;51.230;4.012;2022-12-18T04:00:42;51.60;;;22.30;;
23543;SDS011;11950;51.230;4.012;2022-12-18T04:03:10;53.07;;;22.27;;
23543;SDS011;11950;51.230;4.012;2022-12-18T04:05:45;48.80;;;21.70;;
23543;SDS011;11950;51.230;4.012;2022-12-18T04:08:18;49.27;;;22.57;;
23543;SDS011;11950;51.230;4.012;2022-12-18T04:10:54;48.83;;;22.47;;
23543;SDS011;11950;51.230;4.012;2022-12-18T04:13:27;49.30;;;21.80;;
23543;SDS011;11950;51.230;4.012;2022-12-18T04:15:59;52.43;;;22.57;;
23543;SDS011;11950;51.230;4.012;2022-12-18T04:18:26;52.00;;;22.40;;
23543;SDS011;11950;51.230;4.012;2022-12-18T04:20:53;51.57;;;23.10;;
23543;SDS011;11950;51.230;4.012;2022-12-18T04:23:19;55.60;;;23.57;;
23543;SDS011;11950;51.230;4.012;2022-12-18T04:25:47;49.80;;;22.40;;
23543;SDS011;11950;51.230;4.012;2022-12-18T04:28:20;48.40;;;23.03;;
23543;SDS011;11950;51.230;4.012;2022-12-18T04:30:46;49.17;;;22.17;;
23543;SDS011;11950;51.230;4.012;2022-12-18T04:33:13;50.77;;;23.03;;
23543;SDS011;11950;51.230;4.012;2022-12-18T04:35:42;47.20;;;21.87;;
23543;SDS011;11950;51.230;4.012;2022-12-18T04:38:09;51.67;;;22.30;;
23543;SDS011;11950;51.230;4.012;2022-12-18T04:40:36;48.57;;;21.47;;
23543;SDS011;11950;51.230;4.012;2022-12-18T04:43:08;49.53;;;21.37;;
23543;SDS011;11950;51.230;4.012;2022-12-18T04:45:35;49.37;;;21.40;;
23543;SDS011;11950;51.230;4.012;2022-12-18T04:48:01;47.37;;;20.90;;
23543;SDS011;11950;51.230;4.012;2022-12-18T04:50:29;43.50;;;19.93;;
23543;SDS011;11950;51.230;4.012;2022-12-18T04:52:56;48.57;;;21.73;;
23543;SDS011;11950;51.230;4.012;2022-12-18T04:55:22;46.47;;;20.63;;
23543;SDS011;11950;51.230;4.012;2022-12-18T04:57:49;48.80;;;20.83;;
23543;SDS011;11950;51.230;4.012;2022-12-18T05:00:15;40.30;;;19.33;;
23543;SDS011;11950;51.230;4.012;2022-12-18T05:02:41;41.23;;;19.77;;
23543;SDS011;11950;51.230;4.012;2022-12-18T05:05:08;44.87;;;20.37;;
23543;SDS011;11950;51.230;4.012;2022-12-18T05:07:34;40.17;;;18.47;;
23543;SDS011;11950;51.230;4.012;2022-12-18T05:10:01;42.17;;;19.87;;
23543;SDS011;11950;51.230;4.012;2022-12-18T05:12:28;42.87;;;19.83;;
23543;SDS011;11950;51.230;4.012;2022-12-18T05:14:54;39.83;;;19.87;;
23543;SDS011;11950;51.230;4.012;2022-12-18T05:17:20;39.70;;;19.90;;
23543;SDS011;11950;51.230;4.012;2022-12-18T05:19:47;42.93;;;19.77;;
23543;SDS011;11950;51.230;4.012;2022-12-18T05:22:13;42.67;;;18.97;;
23543;SDS011;11950;51.230;4.012;2022-12-18T05:24:39;41.37;;;19.37;;
23543;SDS011;11950;51.230;4.012;2022-12-18T05:27:05;40.73;;;18.47;;
23543;SDS011;11950;51.230;4.012;2022-12-18T05:29:32;33.57;;;16.53;;
23543;SDS011;11950;51.230;4.012;2022-12-18T05:31:58;37.93;;;17.23;;
23543;SDS011;11950;51.230;4.012;2022-12-18T05:34:24;39.00;;;18.27;;
23543;SDS011;11950;51.230;4.012;2022-12-18T05:36:50;34.63;;;17.00;;
23543;SDS011;11950;51.230;4.012;2022-12-18T05:39:17;39.87;;;18.23;;
23543;SDS011;11950;51.230;4.012;2022-12-18T05:41:43;40.33;;;19.27;;
23543;SDS011;11950;51.230;4.012;2022-12-18T05:44:09;39.03;;;18.53;;
23543;SDS011;11950;51.230;4.012;2022-12-18T05:46:35;35.40;;;17.60;;
23543;SDS011;11950;51.230;4.012;2022-12-18T05:49:02;37.33;;;18.30;;
23543;SDS011;11950;51.230;4.012;2022-12-18T05:51:28;40.10;;;18.53;;
23543;SDS011;11950;51.230;4.012;2022-12-18T05:53:54;39.40;;;17.80;;
23543;SDS011;11950;51.230;4.012;2022-12-18T05:56:21;34.93;;;16.50;;
23543;SDS011;11950;51.230;4.012;2022-12-18T05:58:51;40.80;;;16.60;;
23543;SDS011;11950;51.230;4.012;2022-12-18T06:01:19;36.23;;;17.50;;
23543;SDS011;11950;51.230;4.012;2022-12-18T06:03:51;40.70;;;18.57;;
23543;SDS011;11950;51.230;4.012;2022-12-18T06:08:46;40.93;;;18.60;;
23543;SDS011;11950;51.230;4.012;2022-12-18T06:11:12;38.90;;;17.37;;
23543;SDS011;11950;51.230;4.012;2022-12-18T06:13:41;37.23;;;17.10;;
23543;SDS011;11950;51.230;4.012;2022-12-18T06:16:08;39.37;;;17.63;;
23543;SDS011;11950;51.230;4.012;2022-12-18T06:18:34;41.53;;;18.93;;
23543;SDS011;11950;51.230;4.012;2022-12-18T06:21:00;35.47;;;17.17;;
23543;SDS011;11950;51.230;4.012;2022-12-18T06:23:27;41.10;;;18.30;;
23543;SDS011;11950;51.230;4.012;2022-12-18T06:25:53;39.97;;;19.10;;
23543;SDS011;11950;51.230;4.012;2022-12-18T06:28:20;44.40;;;18.20;;
23543;SDS011;11950;51.230;4.012;2022-12-18T06:30:46;36.63;;;17.23;;
23543;SDS011;11950;51.230;4.012;2022-12-18T06:33:14;32.70;;;16.90;;
23543;SDS011;11950;51.230;4.012;2022-12-18T06:35:41;40.03;;;17.20;;
23543;SDS011;11950;51.230;4.012;2022-12-18T06:38:07;33.77;;;17.10;;
23543;SDS011;11950;51.230;4.012;2022-12-18T06:40:34;36.77;;;17.37;;
23543;SDS011;11950;51.230;4.012;2022-12-18T06:43:03;40.23;;;17.90;;
23543;SDS011;11950;51.230;4.012;2022-12-18T06:45:30;39.47;;;17.40;;
23543;SDS011;11950;51.230;4.012;2022-12-18T06:47:56;37.20;;;16.27;;
23543;SDS011;11950;51.230;4.012;2022-12-18T06:50:23;38.67;;;17.10;;
23543;SDS011;11950;51.230;4.012;2022-12-18T06:52:49;35.13;;;18.17;;
23543;SDS011;11950;51.230;4.012;2022-12-18T06:55:15;37.27;;;17.70;;
23543;SDS011;11950;51.230;4.012;2022-12-18T06:57:41;30.50;;;15.47;;
23543;SDS011;11950;51.230;4.012;2022-12-18T07:00:08;35.40;;;17.67;;
23543;SDS011;11950;51.230;4.012;2022-12-18T07:02:34;35.30;;;16.53;;
23543;SDS011;11950;51.230;4.012;2022-12-18T07:05:01;36.03;;;16.93;;
23543;SDS011;11950;51.230;4.012;2022-12-18T07:07:28;33.23;;;16.47;;
23543;SDS011;11950;51.230;4.012;2022-12-18T07:09:54;31.70;;;15.67;;
23543;SDS011;11950;51.230;4.012;2022-12-18T07:12:20;28.90;;;14.97;;
23543;SDS011;11950;51.230;4.012;2022-12-18T07:14:47;27.90;;;14.23;;
23543;SDS011;11950;51.230;4.012;2022-12-18T07:17:13;33.83;;;15.80;;
23543;SDS011;11950;51.230;4.012;2022-12-18T07:19:39;31.60;;;15.13;;
23543;SDS011;11950;51.230;4.012;2022-12-18T07:22:05;27.70;;;14.33;;
23543;SDS011;11950;51.230;4.012;2022-12-18T07:24:32;32.40;;;14.97;;
23543;SDS011;11950;51.230;4.012;2022-12-18T07:26:59;34.87;;;16.07;;
23543;SDS011;11950;51.230;4.012;2022-12-18T07:29:25;26.00;;;14.10;;
23543;SDS011;11950;51.230;4.012;2022-12-18T07:31:52;31.67;;;14.40;;
23543;SDS011;11950;51.230;4.012;2022-12-18T07:34:18;30.53;;;14.43;;
23543;SDS011;11950;51.230;4.012;2022-12-18T07:36:44;30.77;;;15.67;;
23543;SDS011;11950;51.230;4.012;2022-12-18T07:39:11;28.47;;;14.10;;
23543;SDS011;11950;51.230;4.012;2022-12-18T07:41:37;35.23;;;15.87;;
23543;SDS011;11950;51.230;4.012;2022-12-18T07:44:11;27.02;;;12.23;;
23543;SDS011;11950;51.230;4.012;2022-12-18T07:46:38;33.33;;;16.73;;
23543;SDS011;11950;51.230;4.012;2022-12-18T07:49:04;29.47;;;15.00;;
23543;SDS011;11950;51.230;4.012;2022-12-18T07:51:31;32.10;;;15.13;;
23543;SDS011;11950;51.230;4.012;2022-12-18T07:53:57;30.00;;;14.80;;
23543;SDS011;11950;51.230;4.012;2022-12-18T07:56:23;30.17;;;14.57;;
23543;SDS011;11950;51.230;4.012;2022-12-18T07:58:49;29.80;;;15.13;;
23543;SDS011;11950;51.230;4.012;2022-12-18T08:01:16;30.57;;;14.40;;
23543;SDS011;11950;51.230;4.012;2022-12-18T08:03:42;28.40;;;14.87;;
23543;SDS011;11950;51.230;4.012;2022-12-18T08:06:09;28.73;;;14.90;;
23543;SDS011;11950;51.230;4.012;2022-12-18T08:08:35;30.60;;;14.30;;
23543;SDS011;11950;51.230;4.012;2022-12-18T08:11:02;28.17;;;13.77;;
23543;SDS011;11950;51.230;4.012;2022-12-18T08:13:28;27.73;;;13.73;;
23543;SDS011;11950;51.230;4.012;2022-12-18T08:15:55;29.57;;;13.47;;
23543;SDS011;11950;51.230;4.012;2022-12-18T08:18:33;30.03;;;14.23;;
23543;SDS011;11950;51.230;4.012;2022-12-18T08:21:10;30.40;;;13.97;;
23543;SDS011;11950;51.230;4.012;2022-12-18T08:23:49;28.63;;;12.93;;
23543;SDS011;11950;51.230;4.012;2022-12-18T08:26:16;30.33;;;13.80;;
23543;SDS011;11950;51.230;4.012;2022-12-18T08:28:42;26.67;;;13.27;;
23543;SDS011;11950;51.230;4.012;2022-12-18T08:31:09;26.70;;;13.53;;
23543;SDS011;11950;51.230;4.012;2022-12-18T08:33:36;26.27;;;12.80;;
23543;SDS011;11950;51.230;4.012;2022-12-18T08:36:03;25.43;;;13.60;;
23543;SDS011;11950;51.230;4.012;2022-12-18T08:38:34;27.17;;;14.50;;
23543;SDS011;11950;51.230;4.012;2022-12-18T08:41:08;27.93;;;13.77;;
23543;SDS011;11950;51.230;4.012;2022-12-18T08:43:36;25.53;;;13.90;;
23543;SDS011;11950;51.230;4.012;2022-12-18T08:46:22;27.27;;;13.70;;
23543;SDS011;11950;51.230;4.012;2022-12-18T08:48:50;28.33;;;15.17;;
23543;SDS011;11950;51.230;4.012;2022-12-18T08:51:17;28.47;;;15.40;;
23543;SDS011;11950;51.230;4.012;2022-12-18T08:53:44;30.70;;;15.23;;
23543;SDS011;11950;51.230;4.012;2022-12-18T08:56:11;28.63;;;14.70;;
23543;SDS011;11950;51.230;4.012;2022-12-18T08:58:39;27.10;;;14.13;;
23543;SDS011;11950;51.230;4.012;2022-12-18T09:01:07;28.70;;;13.83;;
23543;SDS011;11950;51.230;4.012;2022-12-18T09:03:35;28.83;;;14.00;;
23543;SDS011;11950;51.230;4.012;2022-12-18T09:06:01;26.40;;;13.23;;
23543;SDS011;11950;51.230;4.012;2022-12-18T09:08:28;31.80;;;14.87;;
23543;SDS011;11950;51.230;4.012;2022-12-18T09:10:55;32.93;;;14.30;;
23543;SDS011;11950;51.230;4.012;2022-12-18T09:13:21;27.67;;;13.83;;
23543;SDS011;11950;51.230;4.012;2022-12-18T09:15:48;26.97;;;13.50;;
23543;SDS011;11950;51.230;4.012;2022-12-18T09:18:17;23.30;;;13.15;;
23543;SDS011;11950;51.230;4.012;2022-12-18T09:20:44;23.93;;;13.47;;
23543;SDS011;11950;51.230;4.012;2022-12-18T09:23:11;25.77;;;13.50;;
23543;SDS011;11950;51.230;4.012;2022-12-18T09:25:38;26.37;;;13.67;;
23543;SDS011;11950;51.230;4.012;2022-12-18T09:28:06;26.43;;;13.27;;
23543;SDS011;11950;51.230;4.012;2022-12-18T09:30:39;26.27;;;14.55;;
23543;SDS011;11950;51.230;4.012;2022-12-18T09:33:07;23.00;;;12.15;;
23543;SDS011;11950;51.230;4.012;2022-12-18T09:35:37;26.05;;;12.88;;
23543;SDS011;11950;51.230;4.012;2022-12-18T09:38:04;20.20;;;9.77;;
23543;SDS011;11950;51.230;4.012;2022-12-18T09:40:40;25.30;;;12.87;;
23543;SDS011;11950;51.230;4.012;2022-12-18T09:43:24;31.08;;;13.75;;
23543;SDS011;11950;51.230;4.012;2022-12-18T09:45:57;27.00;;;14.82;;
23543;SDS011;11950;51.230;4.012;2022-12-18T09:48:30;27.40;;;13.90;;
23543;SDS011;11950;51.230;4.012;2022-12-18T09:51:02;28.17;;;14.20;;
23543;SDS011;11950;51.230;4.012;2022-12-18T09:53:37;25.13;;;13.90;;
23543;SDS011;11950;51.230;4.012;2022-12-18T09:56:04;24.77;;;13.60;;
23543;SDS011;11950;51.230;4.012;2022-12-18T09:58:36;27.30;;;13.38;;
23543;SDS011;11950;51.230;4.012;2022-12-18T10:01:10;27.80;;;14.10;;
23543;SDS011;11950;51.230;4.012;2022-12-18T10:03:39;23.17;;;13.68;;
23543;SDS011;11950;51.230;4.012;2022-12-18T10:06:12;25.15;;;13.10;;
23543;SDS011;11950;51.230;4.012;2022-12-18T10:22:37;27.80;;;14.98;;
23543;SDS011;11950;51.230;4.012;2022-12-18T10:28:18;23.70;;;13.48;;
23543;SDS011;11950;51.230;4.012;2022-12-18T10:30:45;23.48;;;13.23;;
23543;SDS011;11950;51.230;4.012;2022-12-18T10:33:19;24.08;;;13.43;;
23543;SDS011;11950;51.230;4.012;2022-12-18T10:35:49;24.50;;;13.82;;
23543;SDS011;11950;51.230;4.012;2022-12-18T10:40:53;25.42;;;12.55;;
23543;SDS011;11950;51.230;4.012;2022-12-18T10:45:59;25.10;;;13.80;;
23543;SDS011;11950;51.230;4.012;2022-12-18T10:48:36;24.15;;;13.18;;
23543;SDS011;11950;51.230;4.012;2022-12-18T10:51:26;23.98;;;14.18;;
23543;SDS011;11950;51.230;4.012;2022-12-18T10:53:55;24.55;;;13.90;;
23543;SDS011;11950;51.230;4.012;2022-12-18T10:56:22;24.70;;;14.15;;
23543;SDS011;11950;51.230;4.012;2022-12-18T10:59:10;25.52;;;13.52;;
23543;SDS011;11950;51.230;4.012;2022-12-18T11:01:48;21.77;;;11.77;;
23543;SDS011;11950;51.230;4.012;2022-12-18T11:04:19;21.55;;;11.35;;
23543;SDS011;11950;51.230;4.012;2022-12-18T11:06:52;15.47;;;9.23;;
23543;SDS011;11950;51.230;4.012;2022-12-18T11:09:22;21.80;;;12.38;;
23543;SDS011;11950;51.230;4.012;2022-12-18T11:16:58;22.63;;;12.40;;
23543;SDS011;11950;51.230;4.012;2022-12-18T11:21:58;22.02;;;12.75;;
23543;SDS011;11950;51.230;4.012;2022-12-18T11:26:53;22.83;;;11.90;;
23543;SDS011;11950;51.230;4.012;2022-12-18T11:29:23;22.05;;;12.75;;
23543;SDS011;11950;51.230;4.012;2022-12-18T11:35:03;21.15;;;12.02;;
23543;SDS011;11950;51.230;4.012;2022-12-18T11:37:53;20.88;;;12.00;;
23543;SDS011;11950;51.230;4.012;2022-12-18T11:43:25;23.02;;;12.15;;
23543;SDS011;11950;51.230;4.012;2022-12-18T11:45:55;20.48;;;12.20;;
23543;SDS011;11950;51.230;4.012;2022-12-18T11:48:33;21.75;;;11.68;;
23543;SDS011;11950;51.230;4.012;2022-12-18T11:51:05;21.33;;;12.35;;
23543;SDS011;11950;51.230;4.012;2022-12-18T11:53:38;22.27;;;12.07;;
23543;SDS011;11950;51.230;4.012;2022-12-18T11:56:19;23.23;;;12.10;;
23543;SDS011;11950;51.230;4.012;2022-12-18T12:07:13;19.52;;;11.80;;
23543;SDS011;11950;51.230;4.012;2022-12-18T12:09:46;23.02;;;13.00;;
23543;SDS011;11950;51.230;4.012;2022-12-18T12:18:25;21.70;;;12.52;;
23543;SDS011;11950;51.230;4.012;2022-12-18T12:23:59;22.23;;;12.88;;
23543;SDS011;11950;51.230;4.012;2022-12-18T12:26:39;25.17;;;13.23;;
23543;SDS011;11950;51.230;4.012;2022-12-18T12:37:19;24.58;;;13.25;;
23543;SDS011;11950;51.230;4.012;2022-12-18T12:42:38;22.90;;;13.18;;
23543;SDS011;11950;51.230;4.012;2022-12-18T12:45:41;22.98;;;13.50;;
23543;SDS011;11950;51.230;4.012;2022-12-18T12:48:17;27.30;;;14.13;;
23543;SDS011;11950;51.230;4.012;2022-12-18T12:51:00;21.73;;;14.13;;
23543;SDS011;11950;51.230;4.012;2022-12-18T12:53:30;25.15;;;13.40;;
23543;SDS011;11950;51.230;4.012;2022-12-18T12:56:01;23.55;;;14.18;;
23543;SDS011;11950;51.230;4.012;2022-12-18T12:58:31;22.85;;;14.32;;
23543;SDS011;11950;51.230;4.012;2022-12-18T13:01:17;22.33;;;13.68;;
23543;SDS011;11950;51.230;4.012;2022-12-18T13:04:05;22.58;;;13.15;;
23543;SDS011;11950;51.230;4.012;2022-12-18T13:07:00;25.33;;;13.60;;
23543;SDS011;11950;51.230;4.012;2022-12-18T13:10:11;23.58;;;13.80;;
23543;SDS011;11950;51.230;4.012;2022-12-18T13:13:12;25.58;;;13.98;;
23543;SDS011;11950;51.230;4.012;2022-12-18T13:18:20;23.35;;;13.93;;
23543;SDS011;11950;51.230;4.012;2022-12-18T13:20:49;24.27;;;14.25;;
23543;SDS011;11950;51.230;4.012;2022-12-18T13:23:31;25.48;;;15.30;;
23543;SDS011;11950;51.230;4.012;2022-12-18T13:28:58;22.75;;;13.77;;
23543;SDS011;11950;51.230;4.012;2022-12-18T13:36:55;27.98;;;15.30;;
23543;SDS011;11950;51.230;4.012;2022-12-18T13:39:42;27.05;;;16.30;;
23543;SDS011;11950;51.230;4.012;2022-12-18T13:44:38;24.60;;;14.13;;
23543;SDS011;11950;51.230;4.012;2022-12-18T13:49:51;25.40;;;14.68;;
23543;SDS011;11950;51.230;4.012;2022-12-18T13:52:22;25.85;;;14.95;;
23543;SDS011;11950;51.230;4.012;2022-12-18T13:54:55;25.33;;;14.75;;
23543;SDS011;11950;51.230;4.012;2022-12-18T13:57:27;24.40;;;14.55;;
23543;SDS011;11950;51.230;4.012;2022-12-18T13:59:55;26.73;;;15.63;;
23543;SDS011;11950;51.230;4.012;2022-12-18T14:02:24;28.00;;;16.13;;
23543;SDS011;11950;51.230;4.012;2022-12-18T14:04:53;28.00;;;15.98;;
23543;SDS011;11950;51.230;4.012;2022-12-18T14:09:57;30.25;;;15.90;;
23543;SDS011;11950;51.230;4.012;2022-12-18T14:12:27;26.50;;;15.32;;
23543;SDS011;11950;51.230;4.012;2022-12-18T14:17:53;29.45;;;15.68;;
23543;SDS011;11950;51.230;4.012;2022-12-18T14:22:51;25.85;;;15.48;;
23543;SDS011;11950;51.230;4.012;2022-12-18T14:25:19;28.13;;;15.82;;
23543;SDS011;11950;51.230;4.012;2022-12-18T14:27:49;27.83;;;15.57;;
23543;SDS011;11950;51.230;4.012;2022-12-18T14:30:39;30.15;;;17.25;;
23543;SDS011;11950;51.230;4.012;2022-12-18T14:36:21;28.30;;;16.10;;
23543;SDS011;11950;51.230;4.012;2022-12-18T14:38:36;27.67;;;16.65;;
23543;SDS011;11950;51.230;4.012;2022-12-18T14:41:05;31.42;;;17.88;;
23543;SDS011;11950;51.230;4.012;2022-12-18T14:43:36;28.05;;;17.15;;
23543;SDS011;11950;51.230;4.012;2022-12-18T14:46:04;28.55;;;15.90;;
23543;SDS011;11950;51.230;4.012;2022-12-18T14:48:49;29.83;;;17.27;;
23543;SDS011;11950;51.230;4.012;2022-12-18T14:51:21;30.23;;;18.58;;
23543;SDS011;11950;51.230;4.012;2022-12-18T14:53:58;27.90;;;17.45;;
23543;SDS011;11950;51.230;4.012;2022-12-18T14:56:30;31.30;;;18.30;;
23543;SDS011;11950;51.230;4.012;2022-12-18T14:59:02;31.90;;;17.52;;
23543;SDS011;11950;51.230;4.012;2022-12-18T15:01:35;29.52;;;17.30;;
23543;SDS011;11950;51.230;4.012;2022-12-18T15:04:18;29.73;;;17.50;;
23543;SDS011;11950;51.230;4.012;2022-12-18T15:09:29;30.35;;;17.70;;
23543;SDS011;11950;51.230;4.012;2022-12-18T15:11:56;30.95;;;18.23;;
23543;SDS011;11950;51.230;4.012;2022-12-18T15:16:57;36.47;;;18.70;;
23543;SDS011;11950;51.230;4.012;2022-12-18T15:19:33;37.25;;;19.58;;
23543;SDS011;11950;51.230;4.012;2022-12-18T15:22:03;34.92;;;18.88;;
23543;SDS011;11950;51.230;4.012;2022-12-18T15:24:30;31.38;;;17.58;;
23543;SDS011;11950;51.230;4.012;2022-12-18T15:26:58;35.90;;;18.90;;
23543;SDS011;11950;51.230;4.012;2022-12-18T15:29:25;34.22;;;19.30;;
23543;SDS011;11950;51.230;4.012;2022-12-18T15:31:59;35.60;;;18.60;;
23543;SDS011;11950;51.230;4.012;2022-12-18T15:34:30;40.45;;;19.52;;
23543;SDS011;11950;51.230;4.012;2022-12-18T15:36:57;37.78;;;20.25;;
23543;SDS011;11950;51.230;4.012;2022-12-18T15:39:23;38.67;;;19.38;;
23543;SDS011;11950;51.230;4.012;2022-12-18T15:41:50;38.33;;;19.85;;
23543;SDS011;11950;51.230;4.012;2022-12-18T15:44:34;39.75;;;19.60;;
23543;SDS011;11950;51.230;4.012;2022-12-18T15:47:02;39.03;;;19.10;;
23543;SDS011;11950;51.230;4.012;2022-12-18T15:49:28;36.65;;;19.80;;
23543;SDS011;11950;51.230;4.012;2022-12-18T15:51:54;37.72;;;19.10;;
23543;SDS011;11950;51.230;4.012;2022-12-18T15:54:25;37.15;;;19.58;;
23543;SDS011;11950;51.230;4.012;2022-12-18T15:57:10;36.97;;;18.45;;
23543;SDS011;11950;51.230;4.012;2022-12-18T15:59:53;39.28;;;19.13;;
23543;SDS011;11950;51.230;4.012;2022-12-18T16:02:23;34.30;;;18.33;;
23543;SDS011;11950;51.230;4.012;2022-12-18T16:04:50;35.08;;;19.35;;
23543;SDS011;11950;51.230;4.012;2022-12-18T16:07:17;35.00;;;19.25;;
23543;SDS011;11950;51.230;4.012;2022-12-18T16:09:44;36.35;;;18.55;;
23543;SDS011;11950;51.230;4.012;2022-12-18T16:12:14;36.50;;;17.10;;
23543;SDS011;11950;51.230;4.012;2022-12-18T16:14:42;35.47;;;18.13;;
23543;SDS011;11950;51.230;4.012;2022-12-18T16:17:09;36.75;;;19.75;;
23543;SDS011;11950;51.230;4.012;2022-12-18T16:19:37;40.67;;;19.73;;
23543;SDS011;11950;51.230;4.012;2022-12-18T16:22:03;34.97;;;18.65;;
23543;SDS011;11950;51.230;4.012;2022-12-18T16:24:31;35.78;;;19.23;;
23543;SDS011;11950;51.230;4.012;2022-12-18T16:26:59;39.90;;;20.08;;
23543;SDS011;11950;51.230;4.012;2022-12-18T16:29:27;39.63;;;19.35;;
23543;SDS011;11950;51.230;4.012;2022-12-18T16:31:54;33.00;;;18.05;;
23543;SDS011;11950;51.230;4.012;2022-12-18T16:34:26;36.95;;;18.38;;
23543;SDS011;11950;51.230;4.012;2022-12-18T16:36:59;36.38;;;19.27;;
23543;SDS011;11950;51.230;4.012;2022-12-18T16:39:30;35.03;;;19.33;;
23543;SDS011;11950;51.230;4.012;2022-12-18T16:41:57;38.28;;;19.50;;
23543;SDS011;11950;51.230;4.012;2022-12-18T16:44:23;38.67;;;19.08;;
23543;SDS011;11950;51.230;4.012;2022-12-18T16:46:49;40.80;;;18.92;;
23543;SDS011;11950;51.230;4.012;2022-12-18T16:49:16;38.10;;;19.50;;
23543;SDS011;11950;51.230;4.012;2022-12-18T16:51:45;37.55;;;19.42;;
23543;SDS011;11950;51.230;4.012;2022-12-18T16:54:11;40.13;;;20.15;;
23543;SDS011;11950;51.230;4.012;2022-12-18T16:56:38;37.55;;;18.90;;